Terminal Aerodrome Forecast
Issued by NWS

Home | Current Version | Previous Version | Text Only | Print | Product List | Glossary On
Versions: 1 2 3 4 5 6 7 8 9 10 11 12 13 14 15 16 17 18 19 20 21 22 23 24 25 26 27 28 29
366
FTUS46 KMTR 280537
TAFMRY
TAF
KMRY 280537Z 2806/2906 VRB03KT 2SM BR OVC002
      TEMPO 2806/2810 1/2SM FG VV002
     FM281000 VRB03KT 1/2SM FG VV002
     FM281600 VRB03KT 1SM BR VV002
     FM281800 30004KT 6SM HZ FEW002 BKN035
     FM281900 30006KT 6SM HZ FU FEW030
     FM290300 30004KT 5SM BR FU BKN004 OVC007=

USA.gov is the U.S. government's official web portal to all federal, state and local government web resources and services.